sensor_id;sensor_type;location;lat;lon;timestamp;P1;durP1;ratioP1;P2;durP2;ratioP2
72037;SDS011;59900;50.788;12.904;2023-02-28T00:00:28;8.52;;;4.05;;
72037;SDS011;59900;50.788;12.904;2023-02-28T00:02:53;8.67;;;4.20;;
72037;SDS011;59900;50.788;12.904;2023-02-28T00:05:19;8.40;;;3.80;;
72037;SDS011;59900;50.788;12.904;2023-02-28T00:07:46;10.82;;;4.38;;
72037;SDS011;59900;50.788;12.904;2023-02-28T00:10:13;8.93;;;4.10;;
72037;SDS011;59900;50.788;12.904;2023-02-28T00:12:41;8.52;;;4.13;;
72037;SDS011;59900;50.788;12.904;2023-02-28T00:15:09;8.33;;;3.93;;
72037;SDS011;59900;50.788;12.904;2023-02-28T00:17:36;7.50;;;3.78;;
72037;SDS011;59900;50.788;12.904;2023-02-28T00:20:01;7.37;;;3.57;;
72037;SDS011;59900;50.788;12.904;2023-02-28T00:22:29;6.80;;;3.40;;
72037;SDS011;59900;50.788;12.904;2023-02-28T00:24:55;7.80;;;3.55;;
72037;SDS011;59900;50.788;12.904;2023-02-28T00:27:20;8.30;;;3.50;;
72037;SDS011;59900;50.788;12.904;2023-02-28T00:29:48;8.30;;;4.00;;
72037;SDS011;59900;50.788;12.904;2023-02-28T00:32:13;7.55;;;4.10;;
72037;SDS011;59900;50.788;12.904;2023-02-28T00:34:38;7.80;;;3.47;;
72037;SDS011;59900;50.788;12.904;2023-02-28T00:37:04;7.30;;;3.80;;
72037;SDS011;59900;50.788;12.904;2023-02-28T00:39:31;8.63;;;4.68;;
72037;SDS011;59900;50.788;12.904;2023-02-28T00:41:57;8.50;;;3.65;;
72037;SDS011;59900;50.788;12.904;2023-02-28T00:44:23;7.37;;;3.33;;
72037;SDS011;59900;50.788;12.904;2023-02-28T00:46:48;7.57;;;4.03;;
72037;SDS011;59900;50.788;12.904;2023-02-28T00:49:13;8.60;;;3.33;;
72037;SDS011;59900;50.788;12.904;2023-02-28T00:51:38;6.57;;;3.53;;
72037;SDS011;59900;50.788;12.904;2023-02-28T00:54:04;9.13;;;3.90;;
72037;SDS011;59900;50.788;12.904;2023-02-28T00:56:29;9.47;;;3.97;;
72037;SDS011;59900;50.788;12.904;2023-02-28T00:58:54;7.67;;;3.67;;
72037;SDS011;59900;50.788;12.904;2023-02-28T01:01:19;9.63;;;4.47;;
72037;SDS011;59900;50.788;12.904;2023-02-28T01:03:45;9.50;;;4.10;;
72037;SDS011;59900;50.788;12.904;2023-02-28T01:06:10;6.93;;;3.83;;
72037;SDS011;59900;50.788;12.904;2023-02-28T01:08:35;7.00;;;3.83;;
72037;SDS011;59900;50.788;12.904;2023-02-28T01:11:07;7.03;;;4.53;;
72037;SDS011;59900;50.788;12.904;2023-02-28T01:13:37;8.95;;;4.35;;
72037;SDS011;59900;50.788;12.904;2023-02-28T01:16:02;7.73;;;4.10;;
72037;SDS011;59900;50.788;12.904;2023-02-28T01:18:28;6.47;;;3.17;;
72037;SDS011;59900;50.788;12.904;2023-02-28T01:20:53;8.17;;;3.80;;
72037;SDS011;59900;50.788;12.904;2023-02-28T01:23:20;8.67;;;4.00;;
72037;SDS011;59900;50.788;12.904;2023-02-28T01:25:48;9.13;;;3.30;;
72037;SDS011;59900;50.788;12.904;2023-02-28T01:28:13;8.65;;;4.22;;
72037;SDS011;59900;50.788;12.904;2023-02-28T01:30:39;7.40;;;3.90;;
72037;SDS011;59900;50.788;12.904;2023-02-28T01:33:04;6.60;;;3.53;;
72037;SDS011;59900;50.788;12.904;2023-02-28T01:35:32;7.60;;;3.87;;
72037;SDS011;59900;50.788;12.904;2023-02-28T01:38:00;7.18;;;3.83;;
72037;SDS011;59900;50.788;12.904;2023-02-28T01:40:26;7.03;;;3.83;;
72037;SDS011;59900;50.788;12.904;2023-02-28T01:42:51;7.40;;;3.30;;
72037;SDS011;59900;50.788;12.904;2023-02-28T01:47:58;7.95;;;4.05;;
72037;SDS011;59900;50.788;12.904;2023-02-28T01:50:28;6.25;;;3.42;;
72037;SDS011;59900;50.788;12.904;2023-02-28T01:52:56;8.68;;;3.95;;
72037;SDS011;59900;50.788;12.904;2023-02-28T01:55:25;8.38;;;3.60;;
72037;SDS011;59900;50.788;12.904;2023-02-28T01:57:54;8.10;;;3.73;;
72037;SDS011;59900;50.788;12.904;2023-02-28T02:00:22;9.30;;;3.78;;
72037;SDS011;59900;50.788;12.904;2023-02-28T02:02:52;9.10;;;4.25;;
72037;SDS011;59900;50.788;12.904;2023-02-28T02:05:24;9.18;;;3.75;;
72037;SDS011;59900;50.788;12.904;2023-02-28T02:07:54;9.40;;;4.07;;
72037;SDS011;59900;50.788;12.904;2023-02-28T02:10:27;7.70;;;3.63;;
72037;SDS011;59900;50.788;12.904;2023-02-28T02:13:03;7.88;;;3.60;;
72037;SDS011;59900;50.788;12.904;2023-02-28T02:18:43;7.32;;;4.00;;
72037;SDS011;59900;50.788;12.904;2023-02-28T02:27:10;8.15;;;3.78;;
72037;SDS011;59900;50.788;12.904;2023-02-28T02:29:47;7.32;;;3.88;;
72037;SDS011;59900;50.788;12.904;2023-02-28T02:37:52;7.73;;;4.00;;
72037;SDS011;59900;50.788;12.904;2023-02-28T02:40:38;7.85;;;3.80;;
72037;SDS011;59900;50.788;12.904;2023-02-28T02:43:19;10.13;;;3.65;;
72037;SDS011;59900;50.788;12.904;2023-02-28T02:45:59;8.32;;;3.78;;
72037;SDS011;59900;50.788;12.904;2023-02-28T02:48:28;8.40;;;3.90;;
72037;SDS011;59900;50.788;12.904;2023-02-28T02:50:57;8.67;;;4.00;;
72037;SDS011;59900;50.788;12.904;2023-02-28T02:53:26;7.65;;;3.95;;
72037;SDS011;59900;50.788;12.904;2023-02-28T02:55:57;6.63;;;3.53;;
72037;SDS011;59900;50.788;12.904;2023-02-28T02:58:26;12.13;;;4.07;;
72037;SDS011;59900;50.788;12.904;2023-02-28T03:00:57;7.97;;;3.83;;
72037;SDS011;59900;50.788;12.904;2023-02-28T03:03:25;6.90;;;4.03;;
72037;SDS011;59900;50.788;12.904;2023-02-28T03:05:58;11.38;;;4.00;;
72037;SDS011;59900;50.788;12.904;2023-02-28T03:08:25;7.00;;;3.65;;
72037;SDS011;59900;50.788;12.904;2023-02-28T03:10:52;10.60;;;3.85;;
72037;SDS011;59900;50.788;12.904;2023-02-28T03:18:36;8.82;;;3.78;;
72037;SDS011;59900;50.788;12.904;2023-02-28T03:23:52;9.05;;;4.47;;
72037;SDS011;59900;50.788;12.904;2023-02-28T03:26:25;7.57;;;3.83;;
72037;SDS011;59900;50.788;12.904;2023-02-28T03:31:28;9.13;;;3.78;;
72037;SDS011;59900;50.788;12.904;2023-02-28T03:34:08;8.32;;;3.58;;
72037;SDS011;59900;50.788;12.904;2023-02-28T03:36:42;8.55;;;3.80;;
72037;SDS011;59900;50.788;12.904;2023-02-28T03:39:13;9.30;;;4.30;;
72037;SDS011;59900;50.788;12.904;2023-02-28T03:41:42;8.50;;;4.30;;
72037;SDS011;59900;50.788;12.904;2023-02-28T03:44:17;9.88;;;3.88;;
72037;SDS011;59900;50.788;12.904;2023-02-28T03:46:55;9.10;;;4.05;;
72037;SDS011;59900;50.788;12.904;2023-02-28T03:49:27;8.93;;;4.65;;
72037;SDS011;59900;50.788;12.904;2023-02-28T03:51:57;9.20;;;4.20;;
72037;SDS011;59900;50.788;12.904;2023-02-28T03:54:27;9.50;;;4.30;;
72037;SDS011;59900;50.788;12.904;2023-02-28T03:57:05;10.27;;;4.90;;
72037;SDS011;59900;50.788;12.904;2023-02-28T03:59:39;10.48;;;5.10;;
72037;SDS011;59900;50.788;12.904;2023-02-28T04:02:09;9.27;;;4.53;;
72037;SDS011;59900;50.788;12.904;2023-02-28T04:04:34;10.73;;;5.10;;
72037;SDS011;59900;50.788;12.904;2023-02-28T04:07:08;9.50;;;4.60;;
72037;SDS011;59900;50.788;12.904;2023-02-28T04:09:34;10.70;;;4.47;;
72037;SDS011;59900;50.788;12.904;2023-02-28T04:11:59;8.03;;;3.90;;
72037;SDS011;59900;50.788;12.904;2023-02-28T04:14:25;10.18;;;4.70;;
72037;SDS011;59900;50.788;12.904;2023-02-28T04:16:51;9.30;;;4.88;;
72037;SDS011;59900;50.788;12.904;2023-02-28T04:19:17;10.30;;;5.03;;
72037;SDS011;59900;50.788;12.904;2023-02-28T04:21:47;12.50;;;5.22;;
72037;SDS011;59900;50.788;12.904;2023-02-28T04:24:20;12.63;;;5.20;;
72037;SDS011;59900;50.788;12.904;2023-02-28T04:26:48;10.20;;;5.32;;
72037;SDS011;59900;50.788;12.904;2023-02-28T04:29:21;10.30;;;5.05;;
72037;SDS011;59900;50.788;12.904;2023-02-28T04:31:46;9.73;;;4.77;;
72037;SDS011;59900;50.788;12.904;2023-02-28T04:34:12;9.87;;;4.50;;
72037;SDS011;59900;50.788;12.904;2023-02-28T04:36:37;12.40;;;5.30;;
72037;SDS011;59900;50.788;12.904;2023-02-28T04:39:02;10.50;;;5.20;;
72037;SDS011;59900;50.788;12.904;2023-02-28T04:41:29;12.30;;;5.63;;
72037;SDS011;59900;50.788;12.904;2023-02-28T04:43:54;10.07;;;5.30;;
72037;SDS011;59900;50.788;12.904;2023-02-28T04:46:20;10.75;;;5.05;;
72037;SDS011;59900;50.788;12.904;2023-02-28T04:48:46;10.67;;;5.20;;
72037;SDS011;59900;50.788;12.904;2023-02-28T04:51:13;11.03;;;5.23;;
72037;SDS011;59900;50.788;12.904;2023-02-28T04:53:39;10.95;;;5.85;;
72037;SDS011;59900;50.788;12.904;2023-02-28T04:56:06;11.75;;;5.25;;
72037;SDS011;59900;50.788;12.904;2023-02-28T04:58:32;10.77;;;4.78;;
72037;SDS011;59900;50.788;12.904;2023-02-28T05:01:05;12.60;;;6.10;;
72037;SDS011;59900;50.788;12.904;2023-02-28T05:03:48;10.75;;;5.25;;
72037;SDS011;59900;50.788;12.904;2023-02-28T05:06:14;10.40;;;4.95;;
72037;SDS011;59900;50.788;12.904;2023-02-28T05:08:40;13.77;;;5.63;;
72037;SDS011;59900;50.788;12.904;2023-02-28T05:11:06;12.83;;;6.23;;
72037;SDS011;59900;50.788;12.904;2023-02-28T05:13:41;11.88;;;6.55;;
72037;SDS011;59900;50.788;12.904;2023-02-28T05:16:06;13.17;;;5.93;;
72037;SDS011;59900;50.788;12.904;2023-02-28T05:18:32;13.35;;;5.53;;
72037;SDS011;59900;50.788;12.904;2023-02-28T05:20:57;12.90;;;5.70;;
72037;SDS011;59900;50.788;12.904;2023-02-28T05:23:22;12.20;;;5.83;;
72037;SDS011;59900;50.788;12.904;2023-02-28T05:25:48;11.67;;;4.93;;
72037;SDS011;59900;50.788;12.904;2023-02-28T05:28:13;12.67;;;5.50;;
72037;SDS011;59900;50.788;12.904;2023-02-28T05:30:39;14.95;;;5.82;;
72037;SDS011;59900;50.788;12.904;2023-02-28T05:33:04;11.97;;;5.93;;
72037;SDS011;59900;50.788;12.904;2023-02-28T05:35:30;13.57;;;5.80;;
72037;SDS011;59900;50.788;12.904;2023-02-28T05:37:55;12.57;;;5.53;;
72037;SDS011;59900;50.788;12.904;2023-02-28T05:40:20;11.03;;;5.97;;
72037;SDS011;59900;50.788;12.904;2023-02-28T05:42:45;12.50;;;6.23;;
72037;SDS011;59900;50.788;12.904;2023-02-28T05:45:11;13.38;;;6.20;;
72037;SDS011;59900;50.788;12.904;2023-02-28T05:47:37;14.33;;;6.73;;
72037;SDS011;59900;50.788;12.904;2023-02-28T05:50:03;14.87;;;6.40;;
72037;SDS011;59900;50.788;12.904;2023-02-28T05:52:29;17.45;;;6.00;;
72037;SDS011;59900;50.788;12.904;2023-02-28T05:54:57;16.50;;;6.97;;
72037;SDS011;59900;50.788;12.904;2023-02-28T05:57:23;12.47;;;6.00;;
72037;SDS011;59900;50.788;12.904;2023-02-28T05:59:48;15.95;;;6.70;;
72037;SDS011;59900;50.788;12.904;2023-02-28T06:02:14;12.23;;;6.50;;
72037;SDS011;59900;50.788;12.904;2023-02-28T06:04:41;15.75;;;7.25;;
72037;SDS011;59900;50.788;12.904;2023-02-28T06:07:08;14.50;;;6.90;;
72037;SDS011;59900;50.788;12.904;2023-02-28T06:09:33;13.50;;;6.60;;
72037;SDS011;59900;50.788;12.904;2023-02-28T06:11:59;13.53;;;6.13;;
72037;SDS011;59900;50.788;12.904;2023-02-28T06:14:27;13.05;;;6.25;;
72037;SDS011;59900;50.788;12.904;2023-02-28T06:16:52;14.37;;;6.07;;
72037;SDS011;59900;50.788;12.904;2023-02-28T06:19:17;14.43;;;5.23;;
72037;SDS011;59900;50.788;12.904;2023-02-28T06:21:42;13.97;;;6.30;;
72037;SDS011;59900;50.788;12.904;2023-02-28T06:24:08;14.37;;;5.50;;
72037;SDS011;59900;50.788;12.904;2023-02-28T06:26:33;15.90;;;6.37;;
72037;SDS011;59900;50.788;12.904;2023-02-28T06:28:59;13.30;;;6.70;;
72037;SDS011;59900;50.788;12.904;2023-02-28T06:31:25;12.18;;;6.20;;
72037;SDS011;59900;50.788;12.904;2023-02-28T06:33:51;13.57;;;6.47;;
72037;SDS011;59900;50.788;12.904;2023-02-28T06:36:16;16.33;;;7.23;;
72037;SDS011;59900;50.788;12.904;2023-02-28T06:38:43;15.63;;;7.50;;
72037;SDS011;59900;50.788;12.904;2023-02-28T06:41:09;14.02;;;6.82;;
72037;SDS011;59900;50.788;12.904;2023-02-28T06:43:36;13.97;;;7.13;;
72037;SDS011;59900;50.788;12.904;2023-02-28T06:46:04;16.40;;;6.90;;
72037;SDS011;59900;50.788;12.904;2023-02-28T06:48:31;14.70;;;6.70;;
72037;SDS011;59900;50.788;12.904;2023-02-28T06:51:10;15.82;;;6.50;;
72037;SDS011;59900;50.788;12.904;2023-02-28T06:53:38;12.57;;;6.40;;
72037;SDS011;59900;50.788;12.904;2023-02-28T06:56:07;15.20;;;6.40;;
72037;SDS011;59900;50.788;12.904;2023-02-28T06:58:34;14.32;;;6.45;;
72037;SDS011;59900;50.788;12.904;2023-02-28T07:01:00;14.20;;;6.50;;
72037;SDS011;59900;50.788;12.904;2023-02-28T07:03:26;13.13;;;6.22;;
72037;SDS011;59900;50.788;12.904;2023-02-28T07:05:51;15.37;;;6.80;;
72037;SDS011;59900;50.788;12.904;2023-02-28T07:08:16;14.87;;;6.93;;
72037;SDS011;59900;50.788;12.904;2023-02-28T07:10:42;14.13;;;6.40;;
72037;SDS011;59900;50.788;12.904;2023-02-28T07:13:08;17.73;;;8.07;;
72037;SDS011;59900;50.788;12.904;2023-02-28T07:15:33;15.85;;;7.40;;
72037;SDS011;59900;50.788;12.904;2023-02-28T07:17:59;17.10;;;6.40;;
72037;SDS011;59900;50.788;12.904;2023-02-28T07:20:24;14.87;;;6.20;;
72037;SDS011;59900;50.788;12.904;2023-02-28T07:22:50;17.50;;;6.90;;
72037;SDS011;59900;50.788;12.904;2023-02-28T07:25:24;14.02;;;6.47;;
72037;SDS011;59900;50.788;12.904;2023-02-28T07:27:51;17.07;;;6.67;;
72037;SDS011;59900;50.788;12.904;2023-02-28T07:30:17;15.73;;;6.93;;
72037;SDS011;59900;50.788;12.904;2023-02-28T07:32:42;12.23;;;6.27;;
72037;SDS011;59900;50.788;12.904;2023-02-28T07:35:08;13.83;;;6.67;;
72037;SDS011;59900;50.788;12.904;2023-02-28T07:37:33;12.43;;;5.85;;
72037;SDS011;59900;50.788;12.904;2023-02-28T07:40:02;14.80;;;6.27;;
72037;SDS011;59900;50.788;12.904;2023-02-28T07:42:33;15.63;;;6.00;;
72037;SDS011;59900;50.788;12.904;2023-02-28T07:44:59;11.20;;;5.85;;
72037;SDS011;59900;50.788;12.904;2023-02-28T07:47:24;12.37;;;6.33;;
72037;SDS011;59900;50.788;12.904;2023-02-28T07:49:49;13.93;;;6.17;;
72037;SDS011;59900;50.788;12.904;2023-02-28T07:52:15;11.77;;;5.57;;
72037;SDS011;59900;50.788;12.904;2023-02-28T07:54:40;12.50;;;6.40;;
72037;SDS011;59900;50.788;12.904;2023-02-28T07:57:05;13.03;;;6.20;;
72037;SDS011;59900;50.788;12.904;2023-02-28T07:59:31;15.00;;;6.32;;
72037;SDS011;59900;50.788;12.904;2023-02-28T08:01:57;13.53;;;6.03;;
72037;SDS011;59900;50.788;12.904;2023-02-28T08:04:22;15.50;;;6.13;;
72037;SDS011;59900;50.788;12.904;2023-02-28T08:06:47;14.63;;;6.07;;
72037;SDS011;59900;50.788;12.904;2023-02-28T08:09:12;13.20;;;5.43;;
72037;SDS011;59900;50.788;12.904;2023-02-28T08:11:39;14.38;;;5.85;;
72037;SDS011;59900;50.788;12.904;2023-02-28T08:14:04;13.13;;;6.47;;
72037;SDS011;59900;50.788;12.904;2023-02-28T08:16:29;14.13;;;7.13;;
72037;SDS011;59900;50.788;12.904;2023-02-28T08:18:54;15.80;;;6.37;;
72037;SDS011;59900;50.788;12.904;2023-02-28T08:21:20;11.93;;;5.37;;
72037;SDS011;59900;50.788;12.904;2023-02-28T08:23:46;13.07;;;5.28;;
72037;SDS011;59900;50.788;12.904;2023-02-28T08:26:13;11.00;;;5.45;;
72037;SDS011;59900;50.788;12.904;2023-02-28T08:28:39;12.80;;;5.88;;
72037;SDS011;59900;50.788;12.904;2023-02-28T08:31:11;12.97;;;5.13;;
72037;SDS011;59900;50.788;12.904;2023-02-28T08:33:38;11.50;;;5.65;;
72037;SDS011;59900;50.788;12.904;2023-02-28T08:36:05;12.15;;;5.45;;
72037;SDS011;59900;50.788;12.904;2023-02-28T08:38:31;12.23;;;5.63;;
72037;SDS011;59900;50.788;12.904;2023-02-28T08:40:57;12.05;;;5.90;;
72037;SDS011;59900;50.788;12.904;2023-02-28T08:43:26;12.07;;;6.17;;
72037;SDS011;59900;50.788;12.904;2023-02-28T08:45:52;11.07;;;5.60;;
72037;SDS011;59900;50.788;12.904;2023-02-28T08:48:18;11.20;;;5.90;;
72037;SDS011;59900;50.788;12.904;2023-02-28T08:50:43;12.83;;;5.30;;
72037;SDS011;59900;50.788;12.904;2023-02-28T08:53:08;10.43;;;5.13;;
72037;SDS011;59900;50.788;12.904;2023-02-28T08:55:34;13.97;;;5.90;;
72037;SDS011;59900;50.788;12.904;2023-02-28T08:58:00;13.65;;;6.45;;
72037;SDS011;59900;50.788;12.904;2023-02-28T09:00:26;12.83;;;5.67;;
72037;SDS011;59900;50.788;12.904;2023-02-28T09:02:51;10.80;;;5.60;;
72037;SDS011;59900;50.788;12.904;2023-02-28T09:05:17;11.70;;;5.20;;
72037;SDS011;59900;50.788;12.904;2023-02-28T09:07:42;10.55;;;5.13;;
72037;SDS011;59900;50.788;12.904;2023-02-28T09:10:08;13.20;;;5.63;;
72037;SDS011;59900;50.788;12.904;2023-02-28T09:12:34;11.07;;;6.03;;
72037;SDS011;59900;50.788;12.904;2023-02-28T09:15:00;11.33;;;5.33;;
72037;SDS011;59900;50.788;12.904;2023-02-28T09:17:25;10.47;;;5.30;;
72037;SDS011;59900;50.788;12.904;2023-02-28T09:19:51;12.47;;;5.37;;
72037;SDS011;59900;50.788;12.904;2023-02-28T09:22:16;10.73;;;5.90;;
72037;SDS011;59900;50.788;12.904;2023-02-28T09:24:41;10.43;;;5.20;;
72037;SDS011;59900;50.788;12.904;2023-02-28T09:27:06;11.23;;;4.77;;
72037;SDS011;59900;50.788;12.904;2023-02-28T09:29:32;10.77;;;5.10;;
72037;SDS011;59900;50.788;12.904;2023-02-28T09:31:58;14.07;;;5.23;;
72037;SDS011;59900;50.788;12.904;2023-02-28T09:34:24;12.73;;;6.13;;
72037;SDS011;59900;50.788;12.904;2023-02-28T09:36:50;10.95;;;5.30;;
72037;SDS011;59900;50.788;12.904;2023-02-28T09:39:19;11.03;;;5.40;;
72037;SDS011;59900;50.788;12.904;2023-02-28T09:41:45;11.80;;;5.45;;
72037;SDS011;59900;50.788;12.904;2023-02-28T09:44:20;12.05;;;6.10;;
72037;SDS011;59900;50.788;12.904;2023-02-28T09:46:55;10.87;;;5.07;;
72037;SDS011;59900;50.788;12.904;2023-02-28T09:49:25;12.65;;;5.68;;
72037;SDS011;59900;50.788;12.904;2023-02-28T09:52:00;11.95;;;5.43;;
72037;SDS011;59900;50.788;12.904;2023-02-28T09:54:28;13.27;;;5.95;;
72037;SDS011;59900;50.788;12.904;2023-02-28T09:56:58;10.93;;;5.05;;
72037;SDS011;59900;50.788;12.904;2023-02-28T10:02:18;15.48;;;5.60;;
72037;SDS011;59900;50.788;12.904;2023-02-28T10:04:58;12.13;;;5.63;;
72037;SDS011;59900;50.788;12.904;2023-02-28T10:09:58;12.50;;;5.25;;
72037;SDS011;59900;50.788;12.904;2023-02-28T10:12:27;14.83;;;5.27;;
72037;SDS011;59900;50.788;12.904;2023-02-28T10:14:54;11.75;;;5.15;;
72037;SDS011;59900;50.788;12.904;2023-02-28T10:17:22;12.85;;;6.10;;
72037;SDS011;59900;50.788;12.904;2023-02-28T10:19:55;10.68;;;5.22;;
72037;SDS011;59900;50.788;12.904;2023-02-28T10:22:41;16.92;;;5.57;;
72037;SDS011;59900;50.788;12.904;2023-02-28T10:25:25;10.60;;;5.43;;
72037;SDS011;59900;50.788;12.904;2023-02-28T10:28:14;12.55;;;4.97;;
72037;SDS011;59900;50.788;12.904;2023-02-28T10:30:42;12.65;;;6.65;;
72037;SDS011;59900;50.788;12.904;2023-02-28T10:33:14;12.43;;;5.57;;
72037;SDS011;59900;50.788;12.904;2023-02-28T10:35:44;11.75;;;5.55;;
72037;SDS011;59900;50.788;12.904;2023-02-28T10:38:13;10.97;;;4.97;;
72037;SDS011;59900;50.788;12.904;2023-02-28T10:40:44;12.95;;;6.35;;
72037;SDS011;59900;50.788;12.904;2023-02-28T10:45:38;11.80;;;5.30;;
72037;SDS011;59900;50.788;12.904;2023-02-28T10:48:05;10.73;;;5.47;;
72037;SDS011;59900;50.788;12.904;2023-02-28T10:55:56;10.52;;;5.60;;
72037;SDS011;59900;50.788;12.904;2023-02-28T10:58:24;15.17;;;6.40;;
72037;SDS011;59900;50.788;12.904;2023-02-28T11:00:51;13.50;;;6.05;;
72037;SDS011;59900;50.788;12.904;2023-02-28T11:03:25;12.90;;;6.47;;
72037;SDS011;59900;50.788;12.904;2023-02-28T11:05:55;11.38;;;5.70;;
72037;SDS011;59900;50.788;12.904;2023-02-28T11:08:20;14.00;;;5.63;;
72037;SDS011;59900;50.788;12.904;2023-02-28T11:10:47;15.87;;;6.57;;
72037;SDS011;59900;50.788;12.904;2023-02-28T11:13:20;11.32;;;5.50;;
72037;SDS011;59900;50.788;12.904;2023-02-28T11:15:50;13.75;;;6.32;;
72037;SDS011;59900;50.788;12.904;2023-02-28T11:18:25;13.05;;;5.55;;
72037;SDS011;59900;50.788;12.904;2023-02-28T11:20:54;12.48;;;5.70;;
72037;SDS011;59900;50.788;12.904;2023-02-28T11:23:22;13.07;;;5.97;;
72037;SDS011;59900;50.788;12.904;2023-02-28T11:25:52;11.68;;;5.95;;
72037;SDS011;59900;50.788;12.904;2023-02-28T11:31:02;14.13;;;6.47;;
72037;SDS011;59900;50.788;12.904;2023-02-28T11:33:43;15.35;;;6.90;;
72037;SDS011;59900;50.788;12.904;2023-02-28T11:36:18;15.60;;;6.00;;
72037;SDS011;59900;50.788;12.904;2023-02-28T11:38:46;13.98;;;5.95;;
72037;SDS011;59900;50.788;12.904;2023-02-28T11:43:59;12.23;;;5.88;;
72037;SDS011;59900;50.788;12.904;2023-02-28T11:46:54;13.32;;;5.95;;
72037;SDS011;59900;50.788;12.904;2023-02-28T11:49:29;13.47;;;5.00;;
72037;SDS011;59900;50.788;12.904;2023-02-28T12:06:33;16.13;;;6.63;;
72037;SDS011;59900;50.788;12.904;2023-02-28T12:09:09;12.35;;;5.95;;
72037;SDS011;59900;50.788;12.904;2023-02-28T12:11:56;12.73;;;6.15;;
72037;SDS011;59900;50.788;12.904;2023-02-28T12:17:27;12.97;;;5.63;;
72037;SDS011;59900;50.788;12.904;2023-02-28T12:22:57;11.45;;;5.78;;
72037;SDS011;59900;50.788;12.904;2023-02-28T12:25:48;11.73;;;5.40;;
72037;SDS011;59900;50.788;12.904;2023-02-28T12:28:16;11.95;;;6.20;;
72037;SDS011;59900;50.788;12.904;2023-02-28T12:30:49;12.13;;;5.93;;
72037;SDS011;59900;50.788;12.904;2023-02-28T12:33:27;12.63;;;6.13;;
72037;SDS011;59900;50.788;12.904;2023-02-28T12:35:59;12.32;;;5.95;;
72037;SDS011;59900;50.788;12.904;2023-02-28T12:38:38;12.27;;;5.78;;
72037;SDS011;59900;50.788;12.904;2023-02-28T12:41:11;13.65;;;6.47;;
72037;SDS011;59900;50.788;12.904;2023-02-28T12:43:46;14.37;;;6.17;;
72037;SDS011;59900;50.788;12.904;2023-02-28T12:46:21;13.75;;;6.90;;
72037;SDS011;59900;50.788;12.904;2023-02-28T12:48:53;12.20;;;6.07;;
72037;SDS011;59900;50.788;12.904;2023-02-28T12:51:21;12.68;;;6.20;;
72037;SDS011;59900;50.788;12.904;2023-02-28T12:56:34;10.13;;;5.37;;
72037;SDS011;59900;50.788;12.904;2023-02-28T13:05:15;11.98;;;5.60;;
72037;SDS011;59900;50.788;12.904;2023-02-28T13:08:13;12.75;;;5.65;;
72037;SDS011;59900;50.788;12.904;2023-02-28T13:10:43;11.07;;;5.87;;
72037;SDS011;59900;50.788;12.904;2023-02-28T13:13:14;12.73;;;5.80;;
72037;SDS011;59900;50.788;12.904;2023-02-28T13:15:56;11.63;;;6.28;;
72037;SDS011;59900;50.788;12.904;2023-02-28T13:21:02;15.82;;;6.07;;
72037;SDS011;59900;50.788;12.904;2023-02-28T13:26:12;11.45;;;5.57;;
72037;SDS011;59900;50.788;12.904;2023-02-28T13:31:26;11.53;;;5.27;;
72037;SDS011;59900;50.788;12.904;2023-02-28T13:36:23;11.45;;;5.57;;
72037;SDS011;59900;50.788;12.904;2023-02-28T13:38:52;10.40;;;5.30;;
72037;SDS011;59900;50.788;12.904;2023-02-28T13:43:58;11.67;;;6.13;;
72037;SDS011;59900;50.788;12.904;2023-02-28T13:46:36;10.20;;;5.78;;
72037;SDS011;59900;50.788;12.904;2023-02-28T13:51:51;11.83;;;5.83;;
72037;SDS011;59900;50.788;12.904;2023-02-28T13:54:27;12.13;;;5.90;;
72037;SDS011;59900;50.788;12.904;2023-02-28T13:57:12;11.98;;;6.35;;
72037;SDS011;59900;50.788;12.904;2023-02-28T14:00:05;12.30;;;6.35;;
72037;SDS011;59900;50.788;12.904;2023-02-28T14:05:20;11.00;;;5.60;;
72037;SDS011;59900;50.788;12.904;2023-02-28T14:07:51;12.10;;;6.68;;
72037;SDS011;59900;50.788;12.904;2023-02-28T14:10:28;11.65;;;6.03;;
72037;SDS011;59900;50.788;12.904;2023-02-28T14:13:01;10.63;;;5.95;;
72037;SDS011;59900;50.788;12.904;2023-02-28T14:15:45;13.48;;;7.32;;
72037;SDS011;59900;50.788;12.904;2023-02-28T14:21:38;15.00;;;6.82;;
72037;SDS011;59900;50.788;12.904;2023-02-28T14:27:17;14.43;;;6.78;;
72037;SDS011;59900;50.788;12.904;2023-02-28T14:30:03;11.40;;;6.22;;
72037;SDS011;59900;50.788;12.904;2023-02-28T14:32:41;11.47;;;6.90;;
72037;SDS011;59900;50.788;12.904;2023-02-28T14:35:16;14.32;;;7.35;;
72037;SDS011;59900;50.788;12.904;2023-02-28T14:37:50;12.35;;;6.78;;
72037;SDS011;59900;50.788;12.904;2023-02-28T14:40:17;12.87;;;6.77;;
72037;SDS011;59900;50.788;12.904;2023-02-28T14:42:57;12.40;;;6.72;;
72037;SDS011;59900;50.788;12.904;2023-02-28T14:45:29;12.73;;;6.80;;
72037;SDS011;59900;50.788;12.904;2023-02-28T14:47:55;12.68;;;7.00;;
72037;SDS011;59900;50.788;12.904;2023-02-28T14:50:23;11.63;;;6.28;;
72037;SDS011;59900;50.788;12.904;2023-02-28T14:52:53;11.47;;;6.10;;
72037;SDS011;59900;50.788;12.904;2023-02-28T14:55:32;13.23;;;7.25;;
72037;SDS011;59900;50.788;12.904;2023-02-28T14:58:01;20.67;;;11.75;;
72037;SDS011;59900;50.788;12.904;2023-02-28T15:00:34;19.00;;;10.55;;
72037;SDS011;59900;50.788;12.904;2023-02-28T15:03:27;14.02;;;7.35;;
72037;SDS011;59900;50.788;12.904;2023-02-28T15:05:58;13.80;;;7.03;;
72037;SDS011;59900;50.788;12.904;2023-02-28T15:08:28;14.65;;;7.53;;
72037;SDS011;59900;50.788;12.904;2023-02-28T15:11:00;13.45;;;7.47;;
72037;SDS011;59900;50.788;12.904;2023-02-28T15:21:51;12.70;;;6.80;;
72037;SDS011;59900;50.788;12.904;2023-02-28T15:24:44;13.05;;;7.10;;
72037;SDS011;59900;50.788;12.904;2023-02-28T15:27:21;12.35;;;6.85;;
72037;SDS011;59900;50.788;12.904;2023-02-28T15:29:53;12.65;;;7.15;;
72037;SDS011;59900;50.788;12.904;2023-02-28T15:32:32;13.60;;;7.00;;
72037;SDS011;59900;50.788;12.904;2023-02-28T15:35:16;12.40;;;6.68;;
72037;SDS011;59900;50.788;12.904;2023-02-28T15:37:57;12.50;;;7.18;;
72037;SDS011;59900;50.788;12.904;2023-02-28T15:40:38;13.93;;;7.65;;
72037;SDS011;59900;50.788;12.904;2023-02-28T15:43:16;20.05;;;10.82;;
72037;SDS011;59900;50.788;12.904;2023-02-28T15:45:59;15.20;;;7.43;;
72037;SDS011;59900;50.788;12.904;2023-02-28T15:48:43;16.90;;;7.72;;
72037;SDS011;59900;50.788;12.904;2023-02-28T15:51:20;15.20;;;7.28;;
72037;SDS011;59900;50.788;12.904;2023-02-28T15:53:54;14.35;;;7.40;;
72037;SDS011;59900;50.788;12.904;2023-02-28T15:56:23;15.27;;;7.38;;
72037;SDS011;59900;50.788;12.904;2023-02-28T15:58:54;14.37;;;7.07;;
72037;SDS011;59900;50.788;12.904;2023-02-28T16:01:25;17.08;;;8.15;;
72037;SDS011;59900;50.788;12.904;2023-02-28T16:03:54;14.52;;;7.47;;
72037;SDS011;59900;50.788;12.904;2023-02-28T16:09:09;15.75;;;7.88;;
72037;SDS011;59900;50.788;12.904;2023-02-28T16:11:40;20.63;;;10.43;;
72037;SDS011;59900;50.788;12.904;2023-02-28T16:14:16;16.15;;;7.50;;
72037;SDS011;59900;50.788;12.904;2023-02-28T16:16:44;13.75;;;7.47;;
72037;SDS011;59900;50.788;12.904;2023-02-28T16:19:12;15.57;;;7.70;;
72037;SDS011;59900;50.788;12.904;2023-02-28T16:21:38;13.13;;;7.23;;
72037;SDS011;59900;50.788;12.904;2023-02-28T16:24:09;16.47;;;8.07;;
72037;SDS011;59900;50.788;12.904;2023-02-28T16:26:34;15.10;;;7.65;;
72037;SDS011;59900;50.788;12.904;2023-02-28T16:29:02;15.98;;;7.53;;